Airfield :
LOGIN :

Register | Disclaimer

   EN    FR    IT 

 










Legend :    VFR   Marginal VFR   IFR   Intensive IFR   Very Intensive IFR
Visi :
Ceiling :
>= 8 km
>= 3000ft
5 to 8 km
1000 to 3000 ft
1500m to 5 km
500 to 1000 ft
800 to 1500m
200 to 500 ft
< 800m
< 200 ft
Symbols :   Thunderstorms  Fog  Heavy snow  Heavy precipitations  Wind > 20 kt
SIGMETs :     Misc.  Thunderstorms  Icing  Turbulence  Mountain Waves  Volcanic Ashes







- Airport Elevation : 325 ft
- IATA code : BES
- Download approach charts


LFRB - Brest

CURRENT METAR :
  • 211130Z AUTO VRB02KT 9999 FEW013 SCT031 OVC039 20/18 Q1014 TEMPO 4000 SHRA BKN010

EXPIRED METARs :
  • 211100Z AUTO VRB02KT 9999 FEW015 BKN025 OVC032 20/17 Q1014 TEMPO 4000 SHRA BKN012
  • 211030Z AUTO 18004KT 9999 BKN012 BKN017 OVC033 20/17 Q1014 TEMPO 4000 SHRA
  • 211000Z AUTO 16004KT 120V190 9999 BKN010 BKN015 OVC023 19/18 Q1014 TEMPO 4000 SHRA
  • 210930Z AUTO 18004KT 150V210 9999 BKN010 OVC023 19/18 Q1014 TEMPO 4000 SHRA
  • 210900Z AUTO VRB03KT 9999 BKN009 BKN015 BKN020 20/18 Q1014 TEMPO 4000 SHRA BKN012

TAF TAF LFRB
Valid from the 21 at 12:00 until the 22 at 18:00 UTC


211100Z 2112/2218 16004KT 9999 SCT010 BKN020
PROB30
TEMPO 2112/2115 4000 SHRA BKN010
BECMG 2115/2117 36009KT
TEMPO 2200/2203 BKN004
PROB30
TEMPO 2203/2206 4000 BR
BECMG 2206/2209 SCT015
ATIS : +33 2 98 32 02 71
No reported NOTAMs for that airfield.



MET'MAP, your aeronautical weather chart ! - Copyright ORBIFLY December 2007 - Disclaimer

ORBIFLY MET'MAP TEAM :

Programming & Development : Alexandra Zaïnal
Concept & Development : Baudouin d'Aumeries
Co-Development & Prog : Marc-Olivier Méhu
Technical & hardware support : Manuel Goepfert

Contact : metmap@orbifly.com




SOURCES & CREDITS :

   NOAA